createdAt,value
2019-05-16T00:01:24.797Z,9.80
2019-05-16T00:03:52.206Z,9.70
2019-05-16T00:10:00.828Z,9.60
2019-05-16T00:12:29.148Z,9.50
2019-05-16T00:14:58.076Z,9.50
2019-05-16T00:17:24.519Z,9.40
2019-05-16T00:19:51.688Z,9.40
2019-05-16T00:22:18.373Z,9.40
2019-05-16T00:24:45.659Z,9.40
2019-05-16T00:27:12.463Z,9.40
2019-05-16T00:29:39.603Z,9.40
2019-05-16T00:32:08.426Z,9.30
2019-05-16T00:34:35.631Z,9.30
2019-05-16T00:37:03.115Z,9.30
2019-05-16T00:39:30.532Z,9.30
2019-05-16T00:41:58.400Z,9.20
2019-05-16T00:44:28.046Z,9.20
2019-05-16T00:46:55.131Z,9.20
2019-05-16T00:49:22.554Z,9.10
2019-05-16T00:51:49.947Z,9.10
2019-05-16T00:54:18.607Z,9.10
2019-05-16T00:56:48.611Z,9.10
2019-05-16T00:59:18.245Z,9.10
2019-05-16T01:01:45.276Z,9.10
2019-05-16T01:04:12.686Z,9.00
2019-05-16T01:06:40.102Z,9.00
2019-05-16T01:09:08.663Z,9.00
2019-05-16T01:11:38.138Z,8.90
2019-05-16T01:14:08.292Z,8.90
2019-05-16T01:16:35.172Z,8.90
2019-05-16T01:19:02.588Z,9.00
2019-05-16T01:21:30.027Z,9.00
2019-05-16T01:23:58.626Z,9.00
2019-05-16T01:26:26.153Z,9.00
2019-05-16T01:28:53.568Z,8.90
2019-05-16T01:31:20.994Z,8.90
2019-05-16T01:33:48.447Z,8.80
2019-05-16T01:36:19.365Z,8.70
2019-05-16T01:38:45.122Z,8.70
2019-05-16T01:41:12.563Z,8.70
2019-05-16T01:43:39.994Z,8.70
2019-05-16T01:46:08.435Z,8.80
2019-05-16T01:48:37.974Z,8.80
2019-05-16T01:51:05.183Z,8.90
2019-05-16T01:53:32.597Z,8.90
2019-05-16T01:55:59.998Z,8.90
2019-05-16T01:58:29.036Z,8.90
2019-05-16T02:01:10.518Z,9.00
2019-05-16T02:03:28.128Z,9.00
2019-05-16T02:05:55.079Z,8.90
2019-05-16T02:08:22.471Z,8.90
2019-05-16T02:10:49.907Z,8.90
2019-05-16T02:13:18.042Z,8.90
2019-05-16T02:15:45.486Z,8.90
2019-05-16T02:18:12.907Z,8.90
2019-05-16T02:20:41.473Z,9.00
2019-05-16T02:23:08.825Z,8.90
2019-05-16T02:25:38.180Z,9.00
2019-05-16T02:28:05.517Z,8.90
2019-05-16T02:30:32.911Z,8.90
2019-05-16T02:33:01.050Z,8.90
2019-05-16T02:35:31.166Z,8.90
2019-05-16T02:38:00.695Z,8.90
2019-05-16T02:40:27.075Z,8.90
2019-05-16T02:42:56.268Z,8.90
2019-05-16T02:45:24.582Z,8.90
2019-05-16T02:47:52.226Z,8.80
2019-05-16T02:50:22.448Z,8.80
2019-05-16T02:52:51.791Z,8.80
2019-05-16T02:55:21.364Z,8.70
2019-05-16T02:57:47.373Z,8.70
2019-05-16T03:00:16.568Z,8.70
2019-05-16T03:02:44.064Z,8.70
2019-05-16T03:05:12.446Z,8.60
2019-05-16T03:07:46.798Z,8.60
2019-05-16T03:10:12.812Z,8.60
2019-05-16T03:12:41.707Z,8.50
2019-05-16T03:15:10.921Z,8.60
2019-05-16T03:17:43.099Z,8.50
2019-05-16T03:20:10.962Z,8.50
2019-05-16T03:22:41.105Z,8.40
2019-05-16T03:25:11.561Z,8.40
2019-05-16T03:27:41.129Z,8.40
2019-05-16T03:30:07.629Z,8.40
2019-05-16T03:32:35.043Z,8.30
2019-05-16T03:35:04.841Z,8.30
2019-05-16T03:37:49.508Z,8.30
2019-05-16T03:40:01.177Z,8.20
2019-05-16T03:42:31.031Z,8.20
2019-05-16T03:44:57.775Z,8.20
2019-05-16T03:47:25.197Z,8.10
2019-05-16T03:49:52.591Z,8.10
2019-05-16T03:52:20.784Z,8.10
2019-05-16T03:54:50.704Z,8.10
2019-05-16T03:57:20.936Z,8.10
2019-05-16T03:59:46.741Z,8.10
2019-05-16T04:02:14.143Z,8.10
2019-05-16T04:04:41.889Z,8.10
2019-05-16T04:07:10.993Z,8.00
2019-05-16T04:09:41.148Z,7.90
2019-05-16T04:12:10.619Z,7.90
2019-05-16T04:14:37.199Z,7.90
2019-05-16T04:17:04.588Z,7.90
2019-05-16T04:19:31.998Z,7.90
2019-05-16T04:22:01.308Z,7.90
2019-05-16T04:24:31.526Z,7.90
2019-05-16T04:27:00.761Z,7.90
2019-05-16T04:29:27.110Z,7.90
2019-05-16T04:31:54.503Z,7.90
2019-05-16T04:34:21.904Z,7.90
2019-05-16T04:36:51.465Z,8.00
2019-05-16T04:39:20.905Z,8.00
2019-05-16T04:41:50.729Z,8.10
2019-05-16T04:44:16.919Z,8.10
2019-05-16T04:46:44.436Z,8.20
2019-05-16T04:49:11.805Z,8.20
2019-05-16T04:51:41.357Z,8.30
2019-05-16T04:54:11.463Z,8.30
2019-05-16T04:56:40.972Z,8.30
2019-05-16T04:59:06.898Z,8.30
2019-05-16T05:01:34.305Z,8.40
2019-05-16T05:04:10.826Z,8.40
2019-05-16T05:06:31.476Z,8.40
2019-05-16T05:09:03.269Z,8.40
2019-05-16T05:11:30.506Z,8.40
2019-05-16T05:13:57.366Z,8.50
2019-05-16T05:16:24.771Z,8.50
2019-05-16T05:18:52.158Z,8.50
2019-05-16T05:21:20.994Z,8.60
2019-05-16T05:23:50.803Z,8.60
2019-05-16T05:26:19.991Z,8.60
2019-05-16T05:28:47.330Z,8.70
2019-05-16T05:31:14.745Z,8.70
2019-05-16T05:33:42.163Z,8.80
2019-05-16T05:36:12.335Z,8.80
2019-05-16T05:38:40.238Z,8.90
2019-05-16T05:41:07.806Z,8.90
2019-05-16T05:43:35.211Z,8.90
2019-05-16T05:46:02.891Z,9.00
2019-05-16T05:48:31.038Z,9.00
2019-05-16T05:51:00.187Z,9.10
2019-05-16T05:53:29.873Z,9.20
2019-05-16T05:55:56.940Z,9.20
2019-05-16T05:58:24.331Z,9.30
2019-05-16T06:00:52.520Z,9.40
2019-05-16T06:03:22.394Z,9.40
2019-05-16T06:05:50.428Z,9.40
2019-05-16T06:08:20.095Z,9.50
2019-05-16T06:10:47.560Z,9.60
2019-05-16T06:13:14.967Z,9.70
2019-05-16T06:15:42.363Z,9.80
2019-05-16T06:18:10.857Z,9.80
2019-05-16T06:20:40.072Z,9.80
2019-05-16T06:23:07.746Z,9.90
2019-05-16T06:25:35.176Z,9.90
2019-05-16T06:28:02.501Z,10.00
2019-05-16T06:30:30.588Z,10.10
2019-05-16T06:32:59.676Z,10.10
2019-05-16T06:35:29.739Z,10.20
2019-05-16T06:37:56.426Z,10.30
2019-05-16T06:40:23.834Z,10.50
2019-05-16T06:42:51.242Z,10.60
2019-05-16T06:45:20.577Z,10.70
2019-05-16T06:47:50.182Z,10.80
2019-05-16T06:50:17.293Z,10.90
2019-05-16T06:52:45.918Z,11.10
2019-05-16T06:55:13.470Z,11.30
2019-05-16T06:57:41.127Z,11.50
2019-05-16T07:00:10.975Z,11.60
2019-05-16T07:02:40.573Z,11.80
2019-05-16T07:05:10.046Z,11.90
2019-05-16T07:07:37.215Z,12.00
2019-05-16T07:10:05.043Z,12.20
2019-05-16T07:12:34.179Z,12.40
2019-05-16T07:15:02.335Z,12.50
2019-05-16T07:17:30.663Z,12.60
2019-05-16T07:20:00.546Z,12.60
2019-05-16T07:22:27.197Z,12.70
2019-05-16T07:24:54.587Z,12.80
2019-05-16T07:27:22.051Z,13.00
2019-05-16T07:29:50.797Z,13.00
2019-05-16T07:32:19.812Z,13.00
2019-05-16T07:34:49.689Z,13.10
2019-05-16T07:37:16.587Z,13.20
2019-05-16T07:39:44.136Z,13.40
2019-05-16T07:42:11.538Z,13.50
2019-05-16T07:45:00.530Z,13.60
2019-05-16T07:47:27.533Z,13.70
2019-05-16T07:49:54.943Z,13.80
2019-05-16T07:52:22.348Z,13.90
2019-05-16T07:54:50.725Z,14.00
2019-05-16T07:57:20.478Z,14.10
2019-05-16T07:59:47.539Z,14.20
2019-05-16T08:02:14.943Z,14.30
2019-05-16T08:04:42.356Z,14.40
2019-05-16T08:07:11.773Z,14.50
2019-05-16T08:09:39.794Z,14.60
2019-05-16T08:12:07.422Z,14.60
2019-05-16T08:14:35.248Z,14.60
2019-05-16T08:17:02.724Z,14.60
2019-05-16T08:19:30.766Z,14.60
2019-05-16T08:22:01.043Z,14.50
2019-05-16T08:24:27.578Z,14.60
2019-05-16T08:26:54.971Z,14.70
2019-05-16T08:29:22.360Z,14.70
2019-05-16T08:31:52.768Z,14.80
2019-05-16T08:34:20.773Z,14.80
2019-05-16T08:36:51.658Z,14.70
2019-05-16T08:39:17.566Z,14.70
2019-05-16T08:41:44.987Z,14.70
2019-05-16T08:44:12.756Z,14.80
2019-05-16T08:46:42.314Z,15.00
2019-05-16T08:49:12.400Z,15.10
2019-05-16T08:51:42.344Z,15.20
2019-05-16T08:54:12.944Z,15.10
2019-05-16T08:56:37.135Z,15.20
2019-05-16T08:59:04.583Z,15.10
2019-05-16T09:01:35.033Z,15.10
2019-05-16T09:04:01.580Z,15.20
2019-05-16T09:06:32.065Z,15.30
2019-05-16T09:09:04.386Z,15.30
2019-05-16T09:11:39.332Z,15.30
2019-05-16T09:13:57.370Z,15.30
2019-05-16T09:16:27.542Z,15.20
2019-05-16T09:18:54.149Z,15.30
2019-05-16T09:21:21.567Z,15.30
2019-05-16T09:23:48.963Z,15.40
2019-05-16T09:26:19.685Z,15.40
2019-05-16T09:28:48.199Z,15.50
2019-05-16T09:31:17.438Z,15.50
2019-05-16T09:33:44.023Z,15.70
2019-05-16T09:36:11.444Z,15.50
2019-05-16T09:38:38.831Z,15.40
2019-05-16T09:41:07.846Z,15.40
2019-05-16T09:43:38.541Z,15.40
2019-05-16T09:46:07.456Z,15.50
2019-05-16T09:48:33.847Z,15.50
2019-05-16T09:51:01.174Z,15.50
2019-05-16T09:53:28.563Z,15.50
2019-05-16T09:55:57.478Z,15.60
2019-05-16T09:58:27.549Z,15.50
2019-05-16T10:00:56.970Z,15.50
2019-05-16T10:03:23.645Z,15.60
2019-05-16T10:05:51.354Z,15.70
2019-05-16T10:08:18.762Z,15.90
2019-05-16T10:10:46.183Z,15.90
2019-05-16T10:13:13.589Z,15.80
2019-05-16T10:15:41.015Z,15.80
2019-05-16T10:18:08.419Z,15.80
2019-05-16T10:20:36.670Z,15.70
2019-05-16T10:23:04.521Z,15.70
2019-05-16T10:25:32.111Z,15.70
2019-05-16T10:27:59.511Z,15.80
2019-05-16T10:30:27.643Z,15.80
2019-05-16T10:32:57.406Z,15.90
2019-05-16T10:35:29.351Z,15.90
2019-05-16T10:37:53.468Z,15.90
2019-05-16T10:40:21.570Z,16.00
2019-05-16T10:42:48.996Z,16.10
2019-05-16T10:45:16.731Z,16.10
2019-05-16T10:47:44.283Z,16.20
2019-05-16T10:50:11.666Z,16.20
2019-05-16T10:52:39.063Z,16.20
2019-05-16T10:55:08.172Z,16.20
2019-05-16T10:57:37.758Z,16.10
2019-05-16T11:00:16.424Z,16.00
2019-05-16T11:02:37.175Z,16.00
2019-05-16T11:05:22.503Z,15.90
2019-05-16T11:07:36.872Z,15.90
2019-05-16T11:10:07.101Z,16.00
2019-05-16T11:12:47.792Z,16.00
2019-05-16T11:15:10.772Z,16.20
2019-05-16T11:17:34.462Z,16.20
2019-05-16T11:20:01.891Z,16.20
2019-05-16T11:22:30.049Z,16.00
2019-05-16T11:24:57.592Z,15.90
2019-05-16T11:27:24.995Z,15.90
2019-05-16T11:29:52.402Z,15.90
2019-05-16T11:32:19.969Z,16.00
2019-05-16T11:34:47.925Z,16.00
2019-05-16T11:37:17.595Z,16.00
2019-05-16T11:39:46.604Z,16.10
2019-05-16T11:42:13.888Z,16.20
2019-05-16T11:44:41.288Z,16.20
2019-05-16T11:47:08.702Z,16.30
2019-05-16T11:49:36.906Z,16.40
2019-05-16T11:52:06.958Z,16.40
2019-05-16T11:54:33.654Z,16.50
2019-05-16T11:57:01.051Z,16.50
2019-05-16T11:59:28.455Z,16.40
2019-05-16T12:01:55.870Z,16.40
2019-05-16T12:04:23.266Z,16.40
2019-05-16T12:06:50.677Z,16.60
2019-05-16T12:09:18.073Z,16.70
2019-05-16T12:11:45.470Z,16.80
2019-05-16T12:14:12.918Z,16.80
2019-05-16T12:16:40.342Z,16.80
2019-05-16T12:19:07.778Z,16.90
2019-05-16T12:21:35.203Z,16.80
2019-05-16T12:24:02.616Z,16.90
2019-05-16T12:26:29.926Z,16.90
2019-05-16T12:28:57.409Z,17.00
2019-05-16T12:31:24.822Z,17.00
2019-05-16T12:33:52.241Z,17.00
2019-05-16T12:36:19.630Z,17.00
2019-05-16T12:38:47.040Z,16.90
2019-05-16T12:41:14.464Z,17.00
2019-05-16T12:43:49.001Z,17.00
2019-05-16T12:46:11.140Z,17.00
2019-05-16T12:48:38.565Z,17.00
2019-05-16T12:51:08.530Z,17.00
2019-05-16T12:53:36.763Z,17.00
2019-05-16T12:56:04.387Z,17.00
2019-05-16T12:58:37.883Z,17.10
2019-05-16T13:01:01.054Z,17.20
2019-05-16T13:03:28.470Z,17.10
2019-05-16T13:05:57.091Z,17.10
2019-05-16T13:08:26.874Z,17.20
2019-05-16T13:10:53.921Z,17.30
2019-05-16T13:13:21.308Z,17.30
2019-05-16T13:15:48.841Z,17.10
2019-05-16T13:18:16.918Z,17.00
2019-05-16T13:20:46.547Z,16.90
2019-05-16T13:23:14.803Z,16.90
2019-05-16T13:25:42.982Z,16.90
2019-05-16T13:28:10.383Z,16.90
2019-05-16T13:30:37.965Z,17.20
2019-05-16T13:33:07.220Z,17.20
2019-05-16T13:35:37.105Z,17.30
2019-05-16T13:38:03.891Z,17.40
2019-05-16T13:40:31.269Z,17.30
2019-05-16T13:42:58.678Z,17.30
2019-05-16T13:45:27.259Z,17.20
2019-05-16T13:47:57.105Z,17.30
2019-05-16T13:50:24.101Z,17.50
2019-05-16T13:52:51.518Z,17.80
2019-05-16T13:55:19.018Z,17.90
2019-05-16T13:57:46.427Z,18.00
2019-05-16T14:00:17.105Z,18.00
2019-05-16T14:02:43.605Z,18.10
2019-05-16T14:05:11.199Z,18.20
2019-05-16T14:07:38.608Z,18.20
2019-05-16T14:10:06.336Z,18.10
2019-05-16T14:12:33.756Z,18.00
2019-05-16T14:15:01.153Z,18.10
2019-05-16T14:17:28.543Z,18.10
2019-05-16T14:19:57.293Z,18.00
2019-05-16T14:22:27.771Z,17.80
2019-05-16T14:24:56.978Z,17.60
2019-05-16T14:27:26.691Z,17.40
2019-05-16T14:29:53.379Z,17.20
2019-05-16T14:32:20.796Z,17.20
2019-05-16T14:34:51.637Z,17.20
2019-05-16T14:37:17.699Z,17.20
2019-05-16T14:39:48.496Z,17.20
2019-05-16T14:42:17.614Z,17.20
2019-05-16T14:44:59.892Z,17.20
2019-05-16T14:47:12.794Z,17.10
2019-05-16T14:49:40.198Z,17.10
2019-05-16T14:52:07.694Z,17.00
2019-05-16T14:54:37.563Z,17.00
2019-05-16T14:57:04.351Z,17.00
2019-05-16T14:59:31.738Z,17.10
2019-05-16T15:01:59.154Z,17.10
2019-05-16T15:04:30.068Z,17.10
2019-05-16T15:06:57.361Z,17.10
2019-05-16T15:09:27.181Z,17.20
2019-05-16T15:11:54.142Z,17.20
2019-05-16T15:14:21.549Z,17.20
2019-05-16T15:16:51.866Z,17.30
2019-05-16T15:19:18.195Z,17.40
2019-05-16T15:21:47.625Z,17.40
2019-05-16T15:24:17.535Z,17.50
2019-05-16T15:26:44.044Z,17.40
2019-05-16T15:29:11.330Z,17.50
2019-05-16T15:31:39.482Z,17.40
2019-05-16T15:34:07.159Z,17.50
2019-05-16T15:36:37.118Z,17.40
2019-05-16T15:39:08.042Z,17.40
2019-05-16T15:41:36.712Z,17.40
2019-05-16T15:44:04.533Z,17.30
2019-05-16T15:46:32.143Z,17.30
2019-05-16T15:49:00.479Z,17.30
2019-05-16T15:51:28.314Z,17.30
2019-05-16T15:53:57.233Z,17.30
2019-05-16T15:56:27.107Z,17.10
2019-05-16T15:58:54.454Z,17.10
2019-05-16T16:01:21.850Z,17.00
2019-05-16T16:03:49.289Z,17.00
2019-05-16T16:06:17.760Z,17.00
2019-05-16T16:08:46.987Z,17.00
2019-05-16T16:11:17.128Z,17.00
2019-05-16T16:13:43.942Z,17.00
2019-05-16T16:16:11.463Z,17.00
2019-05-16T16:18:38.858Z,17.10
2019-05-16T16:21:07.464Z,17.10
2019-05-16T16:23:37.296Z,17.10
2019-05-16T16:26:06.806Z,17.00
2019-05-16T16:28:33.534Z,17.00
2019-05-16T16:31:00.985Z,17.00
2019-05-16T16:33:30.080Z,17.10
2019-05-16T16:35:57.598Z,17.00
2019-05-16T16:38:25.012Z,17.00
2019-05-16T16:40:52.410Z,17.10
2019-05-16T16:43:19.829Z,17.10
2019-05-16T16:45:47.948Z,17.10
2019-05-16T16:48:17.136Z,17.10
2019-05-16T16:50:44.771Z,17.10
2019-05-16T16:53:12.335Z,17.10
2019-05-16T16:55:39.783Z,17.10
2019-05-16T16:58:09.652Z,17.10
2019-05-16T17:00:37.876Z,17.20
2019-05-16T17:03:09.898Z,17.20
2019-05-16T17:05:37.041Z,17.20
2019-05-16T17:08:04.207Z,17.30
2019-05-16T17:10:31.652Z,17.30
2019-05-16T17:12:59.039Z,17.30
2019-05-16T17:15:27.282Z,17.40
2019-05-16T17:17:57.217Z,17.40
2019-05-16T17:20:23.885Z,17.30
2019-05-16T17:22:51.292Z,17.40
2019-05-16T17:25:20.554Z,17.50
